Time;durP1;ratioP1;P1;durP2;ratioP2;P2;SDS_P1;SDS_P2;PMS_P1;PMS_P2;Temp;Humidity;BMP_temperature;BMP_pressure;BME280_temperature;BME280_humidity;BME280_pressure;Samples;Min_cycle;Max_cycle;Signal;HPM_P1;HPM_P2
2021/08/04 00:00:36;;;;;;;8.43;6.77;;;15.40;99.90;;;;;;5050994;28;20236;-65
2021/08/04 00:03:03;;;;;;;7.50;6.60;;;15.30;99.90;;;;;;5051127;28;21048;-65
2021/08/04 00:05:30;;;;;;;8.40;6.93;;;15.30;1.00;;;;;;5054808;28;20201;-65
2021/08/04 00:07:56;;;;;;;8.33;7.00;;;15.40;99.90;;;;;;5055345;28;20617;-65
2021/08/04 00:10:24;;;;;;;7.63;6.87;;;15.40;99.90;;;;;;5054747;28;20234;-65
2021/08/04 00:12:51;;;;;;;7.63;6.30;;;15.40;99.90;;;;;;5054944;28;20282;-64
2021/08/04 00:15:18;;;;;;;6.87;5.97;;;15.50;99.90;;;;;;5054663;28;20263;-64
2021/08/04 00:17:45;;;;;;;7.57;6.60;;;15.50;99.90;;;;;;5055171;28;20206;-65
2021/08/04 00:20:13;;;;;;;9.20;7.23;;;15.50;99.90;;;;;;5054783;28;20270;-64
2021/08/04 00:22:40;;;;;;;8.30;6.87;;;15.50;99.90;;;;;;5054849;28;20259;-65
2021/08/04 00:25:08;;;;;;;12.23;7.80;;;15.50;99.90;;;;;;5054754;28;20209;-65
2021/08/04 00:27:36;;;;;;;10.03;8.17;;;15.50;99.90;;;;;;5054713;28;20205;-65
2021/08/04 00:30:05;;;;;;;10.87;7.90;;;15.40;1.00;;;;;;5054211;28;20775;-65
2021/08/04 00:32:32;;;;;;;10.30;8.33;;;15.40;99.90;;;;;;5054788;28;20229;-65
2021/08/04 00:34:59;;;;;;;8.23;7.43;;;15.40;99.90;;;;;;5054729;28;20209;-65
2021/08/04 00:37:25;;;;;;;8.90;7.67;;;15.50;99.90;;;;;;5054772;28;20255;-65
2021/08/04 00:39:52;;;;;;;10.23;8.77;;;15.60;1.00;;;;;;5054598;28;20294;-64
2021/08/04 00:42:19;;;;;;;9.47;7.63;;;15.60;1.00;;;;;;5054278;28;20271;-64
2021/08/04 00:44:47;;;;;;;8.93;7.90;;;15.60;31.60;;;;;;5054166;28;20205;-65
2021/08/04 00:47:14;;;;;;;11.60;8.10;;;15.60;37.30;;;;;;5054566;28;20201;-65
2021/08/04 00:49:41;;;;;;;8.77;7.77;;;15.60;99.90;;;;;;5054204;28;20271;-65
2021/08/04 00:52:08;;;;;;;9.13;7.53;;;15.50;1.00;;;;;;5054221;28;20732;-64
2021/08/04 00:54:36;;;;;;;10.67;8.60;;;15.60;1.00;;;;;;5054153;28;20574;-65
2021/08/04 00:57:03;;;;;;;9.30;7.37;;;15.60;44.80;;;;;;5054134;28;20267;-65
2021/08/04 00:59:30;;;;;;;9.20;7.60;;;15.50;44.70;;;;;;5048914;28;20280;-65
2021/08/04 01:02:05;;;;;;;10.70;9.00;;;15.60;19.10;;;;;;5034511;28;20202;-63
2021/08/04 01:04:37;;;;;;;10.63;8.47;;;15.60;52.10;;;;;;5034181;28;20256;-65
2021/08/04 01:07:09;;;;;;;12.37;7.43;;;15.60;1.00;;;;;;5033993;28;20634;-64
2021/08/04 01:09:41;;;;;;;8.97;7.83;;;15.60;99.90;;;;;;5033852;28;20776;-65
2021/08/04 01:12:14;;;;;;;10.87;8.03;;;15.60;99.90;;;;;;5033809;28;20202;-64
2021/08/04 01:14:43;;;;;;;9.10;8.17;;;15.60;99.90;;;;;;5033865;28;20728;-64
2021/08/04 01:17:12;;;;;;;12.07;8.07;;;15.60;99.90;;;;;;5031452;28;20237;-65
2021/08/04 01:19:53;;;;;;;9.80;8.37;;;15.50;52.10;;;;;;5033946;28;20236;-64
2021/08/04 01:22:27;;;;;;;10.40;7.90;;;15.60;1.00;;;;;;5034025;28;20206;-64
2021/08/04 01:25:01;;;;;;;11.73;8.13;;;15.60;1.00;;;;;;5033442;28;20691;-65
2021/08/04 01:27:31;;;;;;;8.87;7.67;;;15.60;1.00;;;;;;5033975;28;20613;-64
2021/08/04 01:30:00;;;;;;;8.63;7.70;;;15.60;1.00;;;;;;5033635;28;20276;-64
2021/08/04 01:32:28;;;;;;;10.77;7.13;;;15.60;99.90;;;;;;5032278;28;20260;-62
2021/08/04 01:34:56;;;;;;;13.50;7.93;;;15.60;99.90;;;;;;5033185;28;20624;-65
2021/08/04 01:37:23;;;;;;;11.37;7.30;;;15.60;1.00;;;;;;5033847;28;20264;-65
2021/08/04 01:39:51;;;;;;;7.80;7.00;;;15.60;1.00;;;;;;5033429;28;20226;-64
2021/08/04 01:42:19;;;;;;;9.60;6.87;;;15.60;99.90;;;;;;5033284;28;20206;-64
2021/08/04 01:44:49;;;;;;;10.93;7.53;;;15.60;99.90;;;;;;5032857;28;20683;-64
2021/08/04 01:47:16;;;;;;;8.30;7.43;;;15.60;99.90;;;;;;5033282;28;20272;-63
2021/08/04 01:49:43;;;;;;;9.47;7.30;;;15.60;1.00;;;;;;5031816;28;20272;-64
2021/08/04 01:52:10;;;;;;;8.97;7.07;;;15.60;1.00;;;;;;5033323;28;20674;-65
2021/08/04 01:54:37;;;;;;;7.77;6.97;;;15.50;28.70;;;;;;5032927;28;20234;-65
2021/08/04 01:57:06;;;;;;;10.17;7.30;;;15.60;91.40;;;;;;5032927;28;20260;-64
2021/08/04 01:59:33;;;;;;;10.43;7.40;;;15.50;1.00;;;;;;5032911;28;20226;-65
2021/08/04 02:02:17;;;;;;;8.40;7.43;;;15.50;99.90;;;;;;5033303;28;20207;-64
2021/08/04 02:04:44;;;;;;;9.67;7.50;;;15.50;99.90;;;;;;5033065;28;20711;-62
2021/08/04 02:07:18;;;;;;;9.73;7.80;;;15.50;1.00;;;;;;5031265;28;20206;-65
2021/08/04 02:09:51;;;;;;;8.53;7.50;;;15.50;99.90;;;;;;5033195;28;20252;-65
2021/08/04 02:12:19;;;;;;;11.60;7.37;;;15.50;99.90;;;;;;5032619;28;20855;-65
2021/08/04 02:14:54;;;;;;;7.97;6.93;;;15.50;99.90;;;;;;5032836;28;20638;-65
2021/08/04 02:17:26;;;;;;;7.97;7.00;;;15.40;1.00;;;;;;5032467;28;20740;-65
2021/08/04 02:19:58;;;;;;;7.50;6.27;;;15.40;1.00;;;;;;5033097;28;20234;-64
2021/08/04 02:22:29;;;;;;;10.47;6.83;;;15.40;99.90;;;;;;5032973;28;20206;-64
2021/08/04 02:25:02;;;;;;;10.17;6.73;;;15.40;99.90;;;;;;5051995;28;20712;-66
2021/08/04 02:27:29;;;;;;;8.10;7.27;;;15.40;99.90;;;;;;5052587;28;20210;-64
2021/08/04 02:29:59;;;;;;;11.07;7.80;;;15.40;1.00;;;;;;5052333;28;20279;-65
2021/08/04 02:32:28;;;;;;;9.93;8.40;;;15.40;99.90;;;;;;5052774;28;20630;-65
2021/08/04 02:34:55;;;;;;;11.37;8.70;;;15.30;99.90;;;;;;5052007;28;20234;-65
2021/08/04 02:37:22;;;;;;;11.50;9.37;;;15.20;1.00;;;;;;5052344;28;20728;-65
2021/08/04 02:39:48;;;;;;;12.60;9.57;;;15.10;99.90;;;;;;5050303;28;20225;-65
2021/08/04 02:42:15;;;;;;;13.50;10.23;;;15.00;99.90;;;;;;5052313;28;20205;-64
2021/08/04 02:44:42;;;;;;;13.03;9.67;;;14.90;99.90;;;;;;5052203;28;20206;-65
2021/08/04 02:47:09;;;;;;;13.00;10.30;;;14.80;1.00;;;;;;5052088;28;20209;-64
2021/08/04 02:49:37;;;;;;;12.03;9.60;;;14.80;99.90;;;;;;5051686;28;20229;-65
2021/08/04 02:52:05;;;;;;;12.33;9.43;;;14.80;99.90;;;;;;5052004;28;20689;-65
2021/08/04 02:54:31;;;;;;;11.80;9.17;;;14.90;1.00;;;;;;5052135;28;20225;-64
2021/08/04 02:56:58;;;;;;;9.57;8.67;;;14.90;1.00;;;;;;5050489;28;20205;-64
2021/08/04 02:59:25;;;;;;;11.33;9.30;;;14.90;99.90;;;;;;5051637;28;20283;-64
2021/08/04 03:01:51;;;;;;;12.53;9.00;;;15.00;99.90;;;;;;5051913;28;20586;-64
2021/08/04 03:04:18;;;;;;;9.87;8.87;;;15.00;99.90;;;;;;5051406;28;20223;-64
2021/08/04 03:06:46;;;;;;;12.00;9.03;;;15.00;24.00;;;;;;5052497;28;20205;-65
2021/08/04 03:09:12;;;;;;;11.17;8.73;;;15.00;99.90;;;;;;5051306;28;20648;-65
2021/08/04 03:11:39;;;;;;;10.20;8.40;;;15.10;13.90;;;;;;5051973;28;20209;-65
2021/08/04 03:14:06;;;;;;;11.57;8.30;;;15.10;1.00;;;;;;5037674;28;20296;-65
2021/08/04 03:16:32;;;;;;;10.47;8.60;;;15.10;99.90;;;;;;5031906;28;20202;-65
2021/08/04 03:18:59;;;;;;;11.47;9.30;;;15.10;99.90;;;;;;5031493;28;20267;-65
2021/08/04 03:21:26;;;;;;;10.73;8.47;;;15.10;99.90;;;;;;5031737;28;20206;-63
2021/08/04 03:23:54;;;;;;;10.43;8.93;;;15.10;99.90;;;;;;5031516;28;20267;-64
2021/08/04 03:26:20;;;;;;;10.27;9.13;;;15.10;99.90;;;;;;5031740;28;20630;-64
2021/08/04 03:28:47;;;;;;;12.50;8.83;;;15.10;71.00;;;;;;5031659;28;20237;-64
2021/08/04 03:31:13;;;;;;;9.40;8.50;;;15.10;1.00;;;;;;5045537;28;20213;-64
2021/08/04 03:33:40;;;;;;;12.80;8.60;;;15.10;1.00;;;;;;5051824;28;20279;-64
2021/08/04 03:36:07;;;;;;;11.67;9.17;;;15.10;1.00;;;;;;5051576;28;20205;-65
2021/08/04 03:38:33;;;;;;;15.00;10.13;;;15.10;1.00;;;;;;5050812;28;20205;-65
2021/08/04 03:41:01;;;;;;;12.70;9.93;;;15.10;1.00;;;;;;5051341;28;20237;-65
2021/08/04 03:43:28;;;;;;;15.87;10.27;;;15.10;1.00;;;;;;5051287;28;20735;-65
2021/08/04 03:45:55;;;;;;;12.27;10.10;;;15.00;1.00;;;;;;5051318;28;20210;-64
2021/08/04 03:48:21;;;;;;;12.63;10.43;;;15.00;92.20;;;;;;5030670;28;20210;-65
2021/08/04 03:50:48;;;;;;;10.90;9.80;;;15.00;72.60;;;;;;5031624;28;20364;-64
2021/08/04 03:53:14;;;;;;;11.77;9.17;;;15.00;72.30;;;;;;5031251;28;20639;-64
2021/08/04 03:55:41;;;;;;;10.97;8.83;;;15.00;3.70;;;;;;5031003;28;20202;-65
2021/08/04 03:58:09;;;;;;;11.07;9.00;;;15.00;1.00;;;;;;5031347;28;20733;-65
2021/08/04 04:00:36;;;;;;;10.47;9.03;;;15.00;1.00;;;;;;5031575;28;20234;-64
2021/08/04 04:03:03;;;;;;;10.40;9.33;;;15.00;1.00;;;;;;5030063;28;20266;-65
2021/08/04 04:05:29;;;;;;;13.67;11.20;;;15.00;99.90;;;;;;5031107;28;20206;-65
2021/08/04 04:07:56;;;;;;;13.00;10.90;;;15.00;99.90;;;;;;5031378;28;20202;-65
2021/08/04 04:10:23;;;;;;;13.53;10.00;;;14.90;42.60;;;;;;5030936;28;20226;-64
2021/08/04 04:12:49;;;;;;;13.27;10.17;;;14.80;1.00;;;;;;5031156;28;20294;-63
2021/08/04 04:15:17;;;;;;;11.97;9.40;;;14.80;99.90;;;;;;5030789;28;20230;-65
2021/08/04 04:17:44;;;;;;;14.33;10.73;;;14.80;99.90;;;;;;5031590;28;20214;-64
2021/08/04 04:20:12;;;;;;;10.40;9.40;;;14.70;1.00;;;;;;5029676;28;20659;-65
2021/08/04 04:22:43;;;;;;;11.77;10.33;;;14.70;1.00;;;;;;5029227;28;20214;-64
2021/08/04 04:25:11;;;;;;;13.87;10.70;;;14.70;3.50;;;;;;5031929;28;20210;-65
2021/08/04 04:27:37;;;;;;;16.30;10.00;;;14.70;3.80;;;;;;5050700;28;20209;-64
2021/08/04 04:30:05;;;;;;;12.37;9.83;;;14.60;3.50;;;;;;5050320;28;20238;-65
2021/08/04 04:32:33;;;;;;;14.60;10.20;;;14.60;3.40;;;;;;5050970;28;20206;-63
2021/08/04 04:35:00;;;;;;;11.80;10.33;;;14.60;1.00;;;;;;5050678;28;20237;-65
2021/08/04 04:37:26;;;;;;;10.90;9.73;;;14.60;99.90;;;;;;5049260;28;20206;-65
2021/08/04 04:39:53;;;;;;;12.10;9.47;;;14.60;99.90;;;;;;5050732;28;20582;-65
2021/08/04 04:42:19;;;;;;;12.67;9.47;;;14.50;99.90;;;;;;5049286;28;20493;-64
2021/08/04 04:44:46;;;;;;;11.47;9.70;;;14.50;99.90;;;;;;5049888;28;20228;-63
2021/08/04 04:47:13;;;;;;;12.80;10.07;;;14.50;1.00;;;;;;5050668;28;20283;-64
2021/08/04 04:49:41;;;;;;;12.17;10.37;;;14.50;1.00;;;;;;5050668;28;20567;-65
2021/08/04 04:52:08;;;;;;;12.07;10.00;;;14.50;1.00;;;;;;5053333;28;20662;-65
2021/08/04 04:54:34;;;;;;;13.97;10.87;;;14.50;92.10;;;;;;5038834;28;20276;-63
2021/08/04 04:57:01;;;;;;;16.83;11.13;;;14.50;99.90;;;;;;5034200;28;20206;-64
2021/08/04 04:59:27;;;;;;;15.50;10.17;;;14.60;99.90;;;;;;5034378;28;20226;-65
2021/08/04 05:01:54;;;;;;;13.03;11.13;;;14.60;1.00;;;;;;5034392;28;20276;-65
2021/08/04 05:04:21;;;;;;;12.93;11.03;;;14.60;1.80;;;;;;5046020;28;20267;-64
2021/08/04 05:06:49;;;;;;;12.83;10.87;;;14.70;90.40;;;;;;5053906;28;20213;-65
2021/08/04 05:09:15;;;;;;;11.80;10.50;;;14.80;99.90;;;;;;5053736;28;20295;-64
2021/08/04 05:11:42;;;;;;;12.57;11.30;;;14.90;99.90;;;;;;5052093;28;20206;-65
2021/08/04 05:14:08;;;;;;;16.03;11.37;;;15.10;99.90;;;;;;5053650;28;20722;-65
2021/08/04 05:16:35;;;;;;;13.93;11.10;;;15.20;99.90;;;;;;5053598;28;20202;-64
2021/08/04 05:19:02;;;;;;;12.83;11.10;;;15.30;99.90;;;;;;5053040;28;20670;-67
2021/08/04 05:21:28;;;;;;;14.37;12.10;;;15.50;99.90;;;;;;5048197;28;20257;-64
2021/08/04 05:23:56;;;;;;;13.63;11.37;;;15.60;84.20;;;;;;5053416;28;20256;-63
2021/08/04 05:26:23;;;;;;;16.47;13.50;;;15.60;99.90;;;;;;5053966;28;20271;-63
2021/08/04 05:28:50;;;;;;;15.70;13.40;;;15.70;99.90;;;;;;5049726;28;20581;-63
2021/08/04 05:31:17;;;;;;;15.83;13.30;;;15.70;99.90;;;;;;5053357;28;20600;-63
2021/08/04 05:33:44;;;;;;;18.40;13.53;;;15.80;1.00;;;;;;5053053;28;20678;-66
2021/08/04 05:36:10;;;;;;;16.20;13.87;;;15.80;1.00;;;;;;5052800;28;20218;-64
2021/08/04 05:38:37;;;;;;;15.70;13.70;;;15.90;99.90;;;;;;5052911;28;20225;-65
2021/08/04 05:41:05;;;;;;;16.00;12.93;;;15.90;1.00;;;;;;5053043;28;20701;-64
2021/08/04 05:43:32;;;;;;;20.80;14.47;;;16.00;1.00;;;;;;5052877;28;20834;-65
2021/08/04 05:45:59;;;;;;;14.93;13.40;;;16.00;99.90;;;;;;5051197;28;20198;-66
2021/08/04 05:48:25;;;;;;;17.17;13.93;;;16.00;1.00;;;;;;5053091;28;20201;-66
2021/08/04 05:50:52;;;;;;;15.50;13.17;;;16.10;1.00;;;;;;5052178;28;20229;-66
2021/08/04 05:53:18;;;;;;;15.13;12.70;;;16.20;1.00;;;;;;5053203;28;20555;-66
2021/08/04 05:55:45;;;;;;;13.27;11.97;;;16.20;1.00;;;;;;5052468;28;20760;-65
2021/08/04 05:58:13;;;;;;;17.37;12.20;;;16.30;99.90;;;;;;5052887;28;20236;-67
2021/08/04 06:00:40;;;;;;;19.33;13.00;;;16.40;1.00;;;;;;5052456;28;20284;-67
2021/08/04 06:03:06;;;;;;;18.43;11.93;;;16.40;99.90;;;;;;5050456;28;20206;-66
2021/08/04 06:05:33;;;;;;;34.07;15.13;;;16.40;99.90;;;;;;5052443;28;20202;-67
2021/08/04 06:07:59;;;;;;;14.43;11.03;;;16.50;1.00;;;;;;5052806;28;20214;-68
2021/08/04 06:10:26;;;;;;;13.40;11.17;;;16.50;1.00;;;;;;5052181;28;20691;-65
2021/08/04 06:12:53;;;;;;;13.50;11.20;;;16.50;99.90;;;;;;5052299;28;20209;-69
2021/08/04 06:15:20;;;;;;;15.03;11.37;;;16.60;99.90;;;;;;5052315;28;20283;-67
2021/08/04 06:17:47;;;;;;;14.00;10.90;;;16.70;34.20;;;;;;5052365;28;20206;-67
2021/08/04 06:20:14;;;;;;;13.17;10.33;;;16.80;99.90;;;;;;5050649;28;20233;-68
2021/08/04 06:22:40;;;;;;;15.93;11.07;;;17.00;1.00;;;;;;5052548;28;20225;-64
2021/08/04 06:25:08;;;;;;;12.97;10.60;;;17.00;99.90;;;;;;5052212;28;20209;-64
2021/08/04 06:27:34;;;;;;;15.60;10.83;;;17.10;99.90;;;;;;5052373;28;20206;-64
2021/08/04 06:30:01;;;;;;;15.67;10.93;;;17.20;1.00;;;;;;5052202;28;20721;-64
2021/08/04 06:32:29;;;;;;;13.23;9.53;;;17.30;1.00;;;;;;5051955;28;20249;-66
2021/08/04 06:34:56;;;;;;;13.30;10.20;;;17.20;1.00;;;;;;5053608;28;20229;-66
2021/08/04 06:37:23;;;;;;;17.30;10.70;;;17.20;14.90;;;;;;5050654;28;20214;-66
2021/08/04 06:39:49;;;;;;;13.77;10.87;;;17.20;1.00;;;;;;5052193;28;20226;-65
2021/08/04 06:42:16;;;;;;;10.77;9.67;;;17.20;1.00;;;;;;5051743;28;20217;-63
2021/08/04 06:44:43;;;;;;;12.90;9.67;;;17.20;1.00;;;;;;5051583;28;20209;-64
2021/08/04 06:47:09;;;;;;;13.87;9.63;;;17.30;1.00;;;;;;5051707;28;20206;-63
2021/08/04 06:49:37;;;;;;;10.93;9.37;;;17.30;99.90;;;;;;5051824;28;20717;-64
2021/08/04 06:52:05;;;;;;;15.03;9.80;;;17.30;99.90;;;;;;5052195;28;20201;-64
2021/08/04 06:54:32;;;;;;;13.47;9.60;;;17.40;99.90;;;;;;5051346;28;20263;-65
2021/08/04 06:56:58;;;;;;;11.03;9.37;;;17.40;99.90;;;;;;5052117;28;20735;-65
2021/08/04 06:59:25;;;;;;;11.60;9.73;;;17.50;99.90;;;;;;5051621;28;20256;-65
2021/08/04 07:01:52;;;;;;;17.13;9.30;;;17.50;99.90;;;;;;5051173;28;20209;-63
2021/08/04 07:04:18;;;;;;;10.47;9.37;;;17.50;99.90;;;;;;5051578;28;20280;-64
2021/08/04 07:06:54;;;;;;;14.73;9.07;;;17.50;97.40;;;;;;5051331;28;20736;-63
2021/08/04 07:09:21;;;;;;;10.17;8.43;;;17.50;99.90;;;;;;5051693;28;20233;-63
2021/08/04 07:11:48;;;;;;;12.70;9.60;;;17.70;99.90;;;;;;5050850;28;20205;-64
2021/08/04 07:14:16;;;;;;;12.63;8.80;;;17.70;99.90;;;;;;5049994;28;20206;-63
2021/08/04 07:16:43;;;;;;;13.23;9.50;;;17.70;99.90;;;;;;5051362;28;20732;-64
2021/08/04 07:19:10;;;;;;;10.90;8.83;;;17.70;99.90;;;;;;5051464;28;20258;-64
2021/08/04 07:21:37;;;;;;;10.30;8.20;;;17.80;41.20;;;;;;5051613;28;20292;-65
2021/08/04 07:24:06;;;;;;;10.97;9.23;;;17.80;23.20;;;;;;5051230;28;20267;-63
2021/08/04 07:26:32;;;;;;;12.70;9.83;;;17.80;25.80;;;;;;5051750;28;20572;-64
2021/08/04 07:28:59;;;;;;;10.80;9.20;;;17.70;1.00;;;;;;5051578;28;20267;-63
2021/08/04 07:31:26;;;;;;;12.13;9.70;;;17.50;1.00;;;;;;5051022;28;20752;-64
2021/08/04 07:33:52;;;;;;;14.43;9.83;;;17.50;1.00;;;;;;5050496;28;20210;-65
2021/08/04 07:36:19;;;;;;;15.20;9.90;;;17.70;43.30;;;;;;5051087;28;20755;-62
2021/08/04 07:38:46;;;;;;;13.23;9.77;;;17.80;1.00;;;;;;5051217;28;20214;-63
2021/08/04 07:41:14;;;;;;;12.57;10.10;;;17.60;1.00;;;;;;5050583;28;20206;-63
2021/08/04 07:43:41;;;;;;;11.17;9.90;;;17.60;1.00;;;;;;5051040;28;20205;-63
2021/08/04 07:46:07;;;;;;;11.10;9.00;;;17.70;1.00;;;;;;5051331;28;20206;-62
2021/08/04 07:48:35;;;;;;;11.20;8.90;;;17.90;1.00;;;;;;5051269;28;20201;-64
2021/08/04 07:51:02;;;;;;;11.63;9.27;;;18.20;1.00;;;;;;5050694;28;20236;-65
2021/08/04 07:53:29;;;;;;;14.47;10.00;;;18.40;1.00;;;;;;5050779;28;20292;-65
2021/08/04 07:55:56;;;;;;;15.33;9.53;;;18.60;1.00;;;;;;5050941;28;20217;-65
2021/08/04 07:58:25;;;;;;;11.90;8.83;;;18.80;1.00;;;;;;5050901;28;20206;-65
2021/08/04 08:00:51;;;;;;;10.87;8.87;;;18.90;1.00;;;;;;5050834;28;20229;-65
2021/08/04 08:03:18;;;;;;;14.00;9.30;;;19.20;1.00;;;;;;5050951;28;20205;-65
2021/08/04 08:05:45;;;;;;;11.30;8.80;;;19.10;1.00;;;;;;5051038;28;20553;-68
2021/08/04 08:08:12;;;;;;;11.97;8.57;;;19.00;1.00;;;;;;5050849;28;20268;-69
2021/08/04 08:10:41;;;;;;;10.23;8.63;;;19.10;1.00;;;;;;5050479;28;20256;-66
2021/08/04 08:13:08;;;;;;;11.23;8.90;;;19.10;1.00;;;;;;5050837;28;20255;-66
2021/08/04 08:15:36;;;;;;;12.83;9.07;;;19.10;1.00;;;;;;5050324;28;20956;-65
2021/08/04 08:18:06;;;;;;;11.70;8.90;;;19.10;1.00;;;;;;5051414;28;20252;-63
2021/08/04 08:20:33;;;;;;;9.50;7.47;;;19.20;1.00;;;;;;5050711;28;20577;-62
2021/08/04 08:22:59;;;;;;;10.80;8.97;;;19.30;1.00;;;;;;5050271;28;20604;-62
2021/08/04 08:25:26;;;;;;;12.93;8.83;;;19.30;1.00;;;;;;5052426;28;20210;-62
2021/08/04 08:27:53;;;;;;;11.07;8.33;;;19.10;99.90;;;;;;5054955;28;20251;-61
2021/08/04 08:30:19;;;;;;;9.33;8.13;;;19.20;99.90;;;;;;5054803;28;20230;-64
2021/08/04 08:32:49;;;;;;;10.73;8.10;;;19.40;99.90;;;;;;5054678;28;20210;-63
2021/08/04 08:35:17;;;;;;;11.03;7.77;;;19.40;99.90;;;;;;5054018;28;20259;-63
2021/08/04 08:37:44;;;;;;;9.97;8.33;;;19.50;99.90;;;;;;5054532;28;20635;-63
2021/08/04 08:40:12;;;;;;;13.33;8.53;;;19.50;99.90;;;;;;5054150;28;20679;-63
2021/08/04 08:42:39;;;;;;;9.07;7.30;;;19.40;99.90;;;;;;5054243;28;20720;-63
2021/08/04 08:45:08;;;;;;;10.63;8.73;;;19.50;99.90;;;;;;5033463;28;20725;-64
2021/08/04 08:47:35;;;;;;;12.93;8.17;;;19.40;99.90;;;;;;5034357;28;20215;-64
2021/08/04 08:50:04;;;;;;;13.90;8.43;;;19.50;99.90;;;;;;5034333;28;20303;-63
2021/08/04 08:52:31;;;;;;;10.60;8.73;;;19.50;99.90;;;;;;5052352;28;20209;-63
2021/08/04 08:55:01;;;;;;;9.83;7.53;;;19.60;99.90;;;;;;5053905;28;20226;-63
2021/08/04 08:57:27;;;;;;;12.57;8.50;;;19.30;99.90;;;;;;5054185;28;20206;-63
2021/08/04 08:59:57;;;;;;;11.77;8.60;;;19.40;99.90;;;;;;5054089;28;20709;-63
2021/08/04 09:02:23;;;;;;;11.73;9.10;;;19.20;99.90;;;;;;5035054;28;20269;-63
2021/08/04 09:05:00;;;;;;;11.77;8.90;;;19.30;99.90;;;;;;5053671;28;20991;-63
2021/08/04 09:07:33;;;;;;;10.77;8.47;;;19.40;99.90;;;;;;5053639;28;20292;-67
2021/08/04 09:10:00;;;;;;;13.33;8.20;;;19.50;99.90;;;;;;5038280;28;20253;-70
2021/08/04 09:12:26;;;;;;;9.43;8.43;;;19.70;99.90;;;;;;5033410;28;20741;-67
2021/08/04 09:14:53;;;;;;;10.77;8.47;;;20.00;99.90;;;;;;5033014;28;20206;-69
2021/08/04 09:17:20;;;;;;;13.93;10.40;;;20.20;99.90;;;;;;5032284;28;20210;-69
2021/08/04 09:19:49;;;;;;;13.07;8.13;;;20.20;99.90;;;;;;5049487;28;20581;-68
2021/08/04 09:22:19;;;;;;;11.10;8.70;;;20.40;99.90;;;;;;5049085;28;20666;-68
2021/08/04 09:25:13;;;;;;;13.03;9.20;;;20.60;99.90;;;;;;5050180;28;20624;-69
2021/08/04 09:27:46;;;;;;;11.90;9.40;;;20.90;99.90;;;;;;5052178;28;20243;-69
2021/08/04 09:30:15;;;;;;;11.57;9.20;;;20.60;99.90;;;;;;5053305;28;20234;-66
2021/08/04 09:32:42;;;;;;;12.23;8.90;;;20.50;99.90;;;;;;5046067;28;20239;-68
2021/08/04 09:35:11;;;;;;;12.07;8.67;;;20.60;99.90;;;;;;5047691;28;20221;-68
2021/08/04 09:37:38;;;;;;;12.90;9.07;;;20.40;99.90;;;;;;5037910;28;20666;-70
2021/08/04 09:40:08;;;;;;;10.27;9.27;;;20.10;99.90;;;;;;5052363;28;20233;-65
2021/08/04 09:42:50;;;;;;;10.73;8.87;;;20.20;99.90;;;;;;5053079;28;20206;-66
2021/08/04 09:45:20;;;;;;;12.23;8.70;;;20.40;99.90;;;;;;5052960;28;20206;-66
2021/08/04 09:47:58;;;;;;;12.40;8.20;;;20.70;99.90;;;;;;5052928;28;20209;-66
2021/08/04 09:50:25;;;;;;;10.67;7.53;;;21.10;99.90;;;;;;5052428;28;20278;-68
2021/08/04 09:52:53;;;;;;;10.80;7.13;;;21.20;99.90;;;;;;5051392;28;20209;-70
2021/08/04 09:55:22;;;;;;;8.53;7.13;;;21.20;99.90;;;;;;5052679;28;20233;-70
2021/08/04 09:57:51;;;;;;;8.53;7.50;;;20.80;99.90;;;;;;5036341;28;20264;-69
2021/08/04 10:00:19;;;;;;;10.83;7.03;;;20.80;99.90;;;;;;5032888;28;20651;-68
2021/08/04 10:02:46;;;;;;;12.10;8.60;;;20.60;99.90;;;;;;5032629;28;20206;-69
2021/08/04 10:05:22;;;;;;;8.67;7.77;;;20.30;99.90;;;;;;5032489;28;20206;-68
2021/08/04 10:08:00;;;;;;;11.67;8.63;;;20.30;99.90;;;;;;5040178;28;20581;-70
2021/08/04 10:10:29;;;;;;;9.37;8.37;;;20.00;99.90;;;;;;5050481;28;20221;-71
2021/08/04 10:12:56;;;;;;;9.57;8.57;;;20.00;99.90;;;;;;5052254;28;20206;-67
2021/08/04 10:15:23;;;;;;;10.67;8.97;;;20.20;99.90;;;;;;5052100;28;20217;-70
2021/08/04 10:17:51;;;;;;;11.87;9.10;;;20.30;99.90;;;;;;5052576;28;20205;-69
2021/08/04 10:20:18;;;;;;;12.53;9.70;;;20.40;99.90;;;;;;5052252;28;20221;-68
2021/08/04 10:22:45;;;;;;;12.03;9.27;;;20.20;99.90;;;;;;5052480;28;20209;-66
2021/08/04 10:25:12;;;;;;;11.67;9.37;;;20.00;99.90;;;;;;5051973;28;20255;-67
2021/08/04 10:27:41;;;;;;;11.27;8.73;;;20.10;99.90;;;;;;5050944;28;20625;-68
2021/08/04 10:30:08;;;;;;;10.70;8.83;;;19.90;99.90;;;;;;5052290;28;20248;-67
2021/08/04 10:32:35;;;;;;;8.70;7.90;;;19.90;99.90;;;;;;5052426;28;20205;-67
2021/08/04 10:35:02;;;;;;;9.67;7.53;;;20.00;99.90;;;;;;5052251;28;20213;-67
2021/08/04 10:37:30;;;;;;;9.03;7.70;;;20.00;99.90;;;;;;5051707;28;20757;-65
2021/08/04 10:39:57;;;;;;;9.13;6.77;;;20.00;99.90;;;;;;5052450;28;20740;-67
2021/08/04 10:42:39;;;;;;;10.03;6.43;;;19.90;99.90;;;;;;5051489;28;20210;-65
2021/08/04 10:45:30;;;;;;;10.33;6.60;;;20.00;99.90;;;;;;5050167;28;20276;-66
2021/08/04 10:48:13;;;;;;;6.50;5.63;;;20.10;99.90;;;;;;5052199;28;20201;-67
2021/08/04 10:50:40;;;;;;;8.13;5.20;;;20.10;99.90;;;;;;5052237;28;20295;-65
2021/08/04 10:53:07;;;;;;;5.83;5.00;;;20.30;99.90;;;;;;5052399;28;20615;-66
2021/08/04 10:55:55;;;;;;;7.23;5.47;;;20.30;99.90;;;;;;5051325;28;20208;-66
2021/08/04 10:58:23;;;;;;;5.83;4.10;;;20.40;99.90;;;;;;5051746;28;20255;-63
2021/08/04 11:00:50;;;;;;;4.80;4.07;;;20.40;99.90;;;;;;5051540;28;20288;-63
2021/08/04 11:03:56;;;;;;;6.07;4.20;;;20.50;99.90;;;;;;5049275;28;20231;-62
2021/08/04 11:06:23;;;;;;;7.70;5.80;;;20.50;99.90;;;;;;5052000;28;20205;-62
2021/08/04 11:09:33;;;;;;;8.30;5.20;;;20.50;99.90;;;;;;5051693;28;20780;-62
2021/08/04 11:12:02;;;;;;;7.20;5.13;;;20.50;99.90;;;;;;5031867;28;20795;-64
2021/08/04 11:14:54;;;;;;;6.87;5.23;;;20.60;99.90;;;;;;5031394;28;20210;-64
2021/08/04 11:17:24;;;;;;;7.23;5.10;;;20.60;99.90;;;;;;5016698;28;20249;-64
2021/08/04 11:20:12;;;;;;;5.70;4.73;;;20.60;99.90;;;;;;5030175;28;20234;-64
2021/08/04 11:22:50;;;;;;;6.03;4.50;;;20.90;99.90;;;;;;5031419;28;20583;-64
2021/08/04 11:25:36;;;;;;;6.53;5.63;;;21.10;99.90;;;;;;5031468;28;20206;-64
2021/08/04 11:28:07;;;;;;;7.80;4.87;;;21.30;99.90;;;;;;5031089;28;20663;-64
2021/08/04 11:30:36;;;;;;;5.40;4.83;;;21.40;99.90;;;;;;5030922;28;20604;-66
2021/08/04 11:33:29;;;;;;;9.63;6.53;;;21.60;99.90;;;;;;5031088;28;20729;-65
2021/08/04 11:36:21;;;;;;;8.23;6.63;;;21.80;99.90;;;;;;5031354;28;20225;-65
2021/08/04 11:38:57;;;;;;;9.80;6.10;;;21.80;99.90;;;;;;5027552;28;20251;-64
2021/08/04 11:41:31;;;;;;;8.87;7.20;;;21.80;99.90;;;;;;5035921;28;20201;-63
2021/08/04 11:44:09;;;;;;;7.03;6.13;;;22.00;99.90;;;;;;5050651;28;20204;-63
2021/08/04 11:46:40;;;;;;;9.50;8.07;;;22.10;99.90;;;;;;5051056;28;20228;-63
2021/08/04 11:49:09;;;;;;;9.57;7.97;;;22.10;99.90;;;;;;5050833;28;20225;-65
2021/08/04 11:51:39;;;;;;;9.23;8.23;;;21.90;99.90;;;;;;5051576;28;20265;-64
2021/08/04 11:54:07;;;;;;;12.03;8.57;;;21.80;99.90;;;;;;5049359;28;20198;-65
2021/08/04 11:56:34;;;;;;;14.27;10.23;;;21.70;99.90;;;;;;5050164;28;20629;-64
2021/08/04 11:59:03;;;;;;;12.57;7.67;;;21.50;99.90;;;;;;5050994;28;20271;-63
2021/08/04 12:01:30;;;;;;;9.20;7.10;;;21.40;99.90;;;;;;5054766;28;20209;-64
2021/08/04 12:04:08;;;;;;;8.47;7.10;;;21.60;99.90;;;;;;5054889;28;20262;-62
2021/08/04 12:06:37;;;;;;;11.27;7.50;;;21.80;99.90;;;;;;5054624;28;20209;-62
2021/08/04 12:09:23;;;;;;;9.03;7.53;;;21.80;99.90;;;;;;5054703;28;20209;-62
2021/08/04 12:11:50;;;;;;;9.27;6.77;;;21.90;99.90;;;;;;5052610;28;20553;-63
2021/08/04 12:14:19;;;;;;;9.00;6.77;;;22.10;99.90;;;;;;5054466;28;20259;-68
2021/08/04 12:16:47;;;;;;;9.27;7.00;;;22.30;99.90;;;;;;5054419;28;20233;-63
2021/08/04 12:19:38;;;;;;;11.93;7.30;;;22.50;99.90;;;;;;5054750;28;20283;-63
2021/08/04 12:22:07;;;;;;;10.47;7.47;;;22.10;99.90;;;;;;5054677;28;20202;-63
2021/08/04 12:24:42;;;;;;;9.40;7.17;;;21.80;99.90;;;;;;5054090;28;20202;-63
2021/08/04 12:27:09;;;;;;;10.80;7.00;;;21.60;99.90;;;;;;5054267;28;20684;-64
2021/08/04 12:29:35;;;;;;;9.50;7.00;;;21.60;99.90;;;;;;5052595;28;20275;-65
2021/08/04 12:32:20;;;;;;;8.13;6.57;;;21.40;99.90;;;;;;5054516;28;20244;-65
2021/08/04 12:34:58;;;;;;;7.37;5.40;;;21.50;99.90;;;;;;5054355;28;20255;-68
2021/08/04 12:37:26;;;;;;;7.50;6.00;;;21.50;99.90;;;;;;5053835;28;20283;-67
2021/08/04 12:39:55;;;;;;;6.90;5.80;;;21.50;99.90;;;;;;5054239;28;20230;-68
2021/08/04 12:42:21;;;;;;;6.80;5.60;;;21.40;99.90;;;;;;5054383;28;20206;-67
2021/08/04 12:44:49;;;;;;;7.40;6.13;;;21.40;99.90;;;;;;5054314;28;20210;-67
2021/08/04 12:47:16;;;;;;;8.60;5.93;;;21.30;99.90;;;;;;5037053;28;20199;-65
2021/08/04 12:49:44;;;;;;;6.90;5.50;;;21.30;99.90;;;;;;5033968;28;20300;-66